Time;durP1;ratioP1;P1;durP2;ratioP2;P2;SDS_P1;SDS_P2;PMS_P1;PMS_P2;Temp;Humidity;BMP_temperature;BMP_pressure;BME280_temperature;BME280_humidity;BME280_pressure;Samples;Min_cycle;Max_cycle;Signal;HPM_P1;HPM_P2
2023/06/22 00:01:25;;;;;;;44.05;30.38;;;14.60;99.90;;;;;;5137517;27;20089;-26
2023/06/22 00:03:51;;;;;;;34.15;24.00;;;14.60;99.90;;;;;;5136753;27;20047;-27
2023/06/22 00:06:22;;;;;;;461.38;30.38;;;14.50;99.90;;;;;;5118456;27;20049;-26
2023/06/22 00:08:48;;;;;;;551.17;28.80;;;14.30;99.90;;;;;;5102479;27;20043;-26
2023/06/22 00:11:14;;;;;;;408.42;22.20;;;14.10;99.90;;;;;;5136319;27;20043;-26
2023/06/22 00:13:47;;;;;;;370.88;20.30;;;14.00;99.90;;;;;;5137029;27;20039;-26
2023/06/22 00:16:19;;;;;;;467.70;30.42;;;13.90;99.90;;;;;;5137211;27;20039;-26
2023/06/22 00:18:48;;;;;;;17.58;15.43;;;13.80;99.90;;;;;;5136328;27;20518;-26
2023/06/22 00:21:24;;;;;;;55.45;15.77;;;13.80;99.90;;;;;;5136282;27;20496;-26
2023/06/22 00:23:50;;;;;;;18.65;15.88;;;13.70;99.90;;;;;;5136998;27;20043;-27
2023/06/22 00:26:26;;;;;;;21.15;17.10;;;13.70;99.90;;;;;;5136317;27;20051;-26
2023/06/22 00:28:52;;;;;;;23.52;18.83;;;13.60;99.90;;;;;;5118120;27;20148;-26
2023/06/22 00:31:17;;;;;;;12.73;11.48;;;13.60;99.90;;;;;;5101005;27;20105;-26
2023/06/22 00:33:50;;;;;;;20.25;15.45;;;13.50;99.90;;;;;;5118443;27;20076;-26
2023/06/22 00:36:23;;;;;;;23.95;18.55;;;13.50;99.90;;;;;;5136539;27;20085;-26
2023/06/22 00:38:50;;;;;;;25.55;20.42;;;13.50;99.90;;;;;;5136297;27;20512;-26
2023/06/22 00:41:23;;;;;;;21.45;18.85;;;13.50;99.90;;;;;;5136775;27;20439;-26
2023/06/22 00:43:55;;;;;;;28.83;22.13;;;13.50;99.90;;;;;;5136030;27;20035;-26
2023/06/22 00:46:27;;;;;;;27.52;22.00;;;13.50;99.90;;;;;;5136611;27;20039;-26
2023/06/22 00:48:57;;;;;;;31.70;22.45;;;13.50;99.90;;;;;;5135994;27;20047;-26
2023/06/22 00:51:30;;;;;;;13.48;12.05;;;13.40;99.90;;;;;;5118212;27;20047;-26
2023/06/22 00:54:03;;;;;;;7.80;7.05;;;13.40;99.90;;;;;;5136450;27;20476;-26
2023/06/22 00:56:30;;;;;;;7.15;5.93;;;13.30;99.90;;;;;;5117571;27;20126;-26
2023/06/22 00:59:13;;;;;;;4.88;4.47;;;13.20;99.90;;;;;;5102239;27;20456;-26
2023/06/22 01:01:41;;;;;;;10.00;8.18;;;13.10;99.90;;;;;;5117697;27;20051;-26
2023/06/22 01:04:07;;;;;;;7.55;6.85;;;13.00;99.90;;;;;;5135594;27;20120;-26
2023/06/22 01:06:52;;;;;;;10.60;9.50;;;13.00;99.90;;;;;;5136168;27;20108;-27
2023/06/22 01:09:31;;;;;;;15.13;12.68;;;12.90;99.90;;;;;;5135644;27;20061;-26
2023/06/22 01:12:02;;;;;;;13.25;11.85;;;12.90;99.90;;;;;;5117815;27;20446;-26
2023/06/22 01:14:38;;;;;;;19.60;16.13;;;12.90;99.90;;;;;;5100912;27;20062;-25
2023/06/22 01:17:10;;;;;;;18.35;15.32;;;12.90;99.90;;;;;;5100238;27;20050;-26
2023/06/22 01:19:46;;;;;;;113.43;15.88;;;13.00;99.90;;;;;;5136228;27;20122;-26
2023/06/22 01:22:20;;;;;;;27.50;10.45;;;12.80;99.90;;;;;;5135366;27;20089;-26
2023/06/22 01:25:22;;;;;;;9.93;9.02;;;12.70;99.90;;;;;;5135489;27;20126;-26
2023/06/22 01:31:50;;;;;;;100.43;20.67;;;12.40;99.90;;;;;;5130402;27;20038;-26
2023/06/22 01:34:19;;;;;;;31.50;12.05;;;12.40;99.90;;;;;;5134070;27;20043;-25
2023/06/22 01:36:49;;;;;;;10.80;9.90;;;12.30;99.90;;;;;;5114851;27;20051;-26
2023/06/22 01:39:20;;;;;;;14.63;13.35;;;12.30;99.90;;;;;;5117782;27;20107;-25
2023/06/22 01:41:47;;;;;;;13.65;12.55;;;12.20;99.90;;;;;;5133475;27;20573;-25
2023/06/22 01:44:13;;;;;;;104.88;19.23;;;12.20;99.90;;;;;;5133277;27;20031;-24
2023/06/22 01:46:40;;;;;;;469.20;37.25;;;12.20;99.90;;;;;;5131956;27;20045;-24
2023/06/22 01:49:06;;;;;;;48.63;17.95;;;12.20;99.90;;;;;;5133788;27;20051;-26
2023/06/22 01:51:40;;;;;;;41.05;18.52;;;12.10;99.90;;;;;;5115583;27;20047;-24
2023/06/22 01:54:08;;;;;;;24.42;17.50;;;12.10;99.90;;;;;;5115264;28;20070;-25
2023/06/22 01:56:34;;;;;;;23.95;16.52;;;12.00;99.90;;;;;;5134755;27;20046;-25
2023/06/22 01:59:35;;;;;;;77.60;19.23;;;12.00;99.90;;;;;;5133435;27;20479;-25
2023/06/22 02:02:07;;;;;;;22.45;16.30;;;12.00;99.90;;;;;;5131864;27;20047;-24
2023/06/22 02:04:48;;;;;;;108.15;22.60;;;11.90;99.90;;;;;;5133909;27;20035;-26
2023/06/22 02:07:23;;;;;;;171.75;25.40;;;11.90;99.90;;;;;;5134381;28;20059;-26
2023/06/22 02:09:52;;;;;;;297.73;33.72;;;12.00;99.90;;;;;;5134134;28;20051;-24
2023/06/22 02:12:23;;;;;;;109.90;29.90;;;12.10;99.90;;;;;;5112458;28;20051;-25
2023/06/22 02:14:54;;;;;;;497.13;53.38;;;12.10;99.90;;;;;;5132839;28;20042;-24
2023/06/22 02:17:26;;;;;;;180.30;33.92;;;12.10;99.90;;;;;;5133531;28;20563;-24
2023/06/22 02:19:56;;;;;;;34.10;24.92;;;12.10;99.90;;;;;;5134975;28;20043;-24
2023/06/22 02:22:22;;;;;;;68.97;37.80;;;12.10;99.90;;;;;;5113129;28;20050;-24
2023/06/22 02:24:56;;;;;;;43.53;36.08;;;12.20;99.90;;;;;;5115565;28;20044;-24
2023/06/22 02:27:23;;;;;;;44.90;35.38;;;12.40;99.90;;;;;;5133885;28;20043;-25
2023/06/22 02:29:49;;;;;;;46.65;37.35;;;12.40;99.90;;;;;;5116166;28;20039;-24
2023/06/22 02:32:28;;;;;;;75.65;44.63;;;12.50;99.90;;;;;;5133605;28;20054;-24
2023/06/22 02:34:57;;;;;;;59.30;42.63;;;12.50;99.90;;;;;;5132808;27;20130;-24
2023/06/22 02:37:25;;;;;;;86.93;48.60;;;12.60;99.90;;;;;;5137761;27;20082;-24
2023/06/22 02:39:50;;;;;;;75.57;48.83;;;12.70;99.90;;;;;;5138469;27;20043;-24
2023/06/22 02:42:29;;;;;;;93.90;47.25;;;12.70;99.90;;;;;;5137694;27;20553;-24
2023/06/22 02:45:00;;;;;;;79.55;49.55;;;12.80;99.90;;;;;;5117469;27;20075;-25
2023/06/22 02:47:35;;;;;;;77.28;50.88;;;12.90;99.90;;;;;;5136287;27;20043;-23
2023/06/22 02:50:06;;;;;;;80.45;50.97;;;12.90;99.90;;;;;;5104854;27;20055;-24
2023/06/22 02:52:40;;;;;;;106.80;62.03;;;12.90;99.90;;;;;;5120226;27;20043;-24
2023/06/22 02:55:07;;;;;;;126.22;65.38;;;13.00;99.90;;;;;;5136637;27;20469;-24
2023/06/22 02:57:46;;;;;;;118.82;64.85;;;13.10;99.90;;;;;;5120404;27;20114;-25
2023/06/22 03:00:18;;;;;;;109.55;64.80;;;13.20;99.90;;;;;;5137792;27;20043;-23
2023/06/22 03:02:52;;;;;;;104.68;62.35;;;13.20;99.90;;;;;;5137125;27;20099;-25
2023/06/22 03:05:20;;;;;;;95.80;58.67;;;13.30;99.90;;;;;;5138513;27;20043;-24
2023/06/22 03:07:50;;;;;;;77.40;50.95;;;13.30;99.90;;;;;;5097728;28;20044;-24
2023/06/22 03:10:16;;;;;;;103.45;49.97;;;13.30;99.90;;;;;;5118371;27;20047;-25
2023/06/22 03:12:43;;;;;;;57.92;42.75;;;13.30;99.90;;;;;;5138178;27;20449;-24
2023/06/22 03:15:17;;;;;;;88.22;45.92;;;13.20;99.90;;;;;;5137802;27;20047;-25
2023/06/22 03:17:53;;;;;;;154.70;45.88;;;13.10;99.90;;;;;;5120548;27;20126;-25
2023/06/22 03:20:26;;;;;;;49.17;35.65;;;13.00;99.90;;;;;;5137769;27;20045;-24
2023/06/22 03:22:52;;;;;;;92.43;43.17;;;12.90;99.90;;;;;;5119495;27;20061;-24
2023/06/22 03:25:18;;;;;;;52.75;36.92;;;12.90;99.90;;;;;;5136519;27;20051;-24
2023/06/22 03:27:44;;;;;;;175.15;45.22;;;12.90;99.90;;;;;;5137470;27;20069;-25
2023/06/22 03:30:12;;;;;;;365.52;54.28;;;12.70;99.90;;;;;;5137529;27;20078;-25
2023/06/22 03:32:38;;;;;;;190.23;37.25;;;12.70;99.90;;;;;;5119164;27;20093;-24
2023/06/22 03:35:12;;;;;;;155.40;32.67;;;12.40;99.90;;;;;;5137981;27;20074;-25
2023/06/22 03:37:38;;;;;;;44.22;24.48;;;12.20;99.90;;;;;;5138226;27;20047;-24
2023/06/22 03:40:12;;;;;;;144.02;36.15;;;12.10;99.90;;;;;;5119275;27;20039;-24
2023/06/22 03:42:48;;;;;;;201.13;38.78;;;12.00;99.90;;;;;;5117676;27;20454;-24
2023/06/22 03:45:14;;;;;;;203.95;32.33;;;11.90;99.90;;;;;;5118693;27;20055;-24
2023/06/22 03:47:40;;;;;;;103.65;30.23;;;11.90;99.90;;;;;;5132715;27;20039;-24
2023/06/22 03:50:09;;;;;;;45.88;31.13;;;12.00;99.90;;;;;;5137189;27;20055;-24
2023/06/22 03:52:48;;;;;;;66.00;33.72;;;12.00;99.90;;;;;;5136177;27;20050;-24
2023/06/22 03:55:14;;;;;;;150.20;36.60;;;12.10;99.90;;;;;;5135912;27;20043;-24
2023/06/22 03:57:42;;;;;;;259.77;39.47;;;12.10;99.90;;;;;;5135227;27;20187;-24
2023/06/22 04:00:09;;;;;;;165.60;34.95;;;12.10;99.90;;;;;;5137500;27;20043;-24
2023/06/22 04:02:38;;;;;;;96.78;37.00;;;12.20;99.90;;;;;;5133110;27;20051;-24
2023/06/22 04:05:04;;;;;;;47.20;34.53;;;12.20;99.90;;;;;;5133094;27;20039;-23
2023/06/22 04:07:30;;;;;;;288.40;60.42;;;12.20;99.90;;;;;;5129477;27;20046;-24
2023/06/22 04:09:56;;;;;;;185.80;46.03;;;12.30;99.90;;;;;;5116790;27;20054;-25
2023/06/22 04:12:22;;;;;;;730.00;89.70;;;12.30;99.90;;;;;;5132735;27;20043;-24
2023/06/22 04:14:53;;;;;;;64.68;37.83;;;12.20;99.90;;;;;;5135666;27;20122;-25
2023/06/22 04:17:29;;;;;;;42.47;36.38;;;12.20;99.90;;;;;;5098544;28;20055;-25
2023/06/22 04:20:05;;;;;;;42.53;36.50;;;12.20;99.90;;;;;;5117563;27;20049;-24
2023/06/22 04:22:36;;;;;;;45.45;38.65;;;12.30;99.90;;;;;;5099105;27;20085;-24
2023/06/22 04:25:12;;;;;;;49.55;41.00;;;12.40;99.90;;;;;;5100221;27;20489;-24
2023/06/22 04:27:40;;;;;;;52.47;40.53;;;12.50;99.90;;;;;;5136359;27;20039;-24
2023/06/22 04:30:07;;;;;;;74.15;48.17;;;12.50;99.90;;;;;;5135280;27;20073;-24
2023/06/22 04:32:40;;;;;;;66.93;44.80;;;12.60;99.90;;;;;;5136002;27;20508;-24
2023/06/22 04:35:15;;;;;;;78.03;49.80;;;12.80;99.90;;;;;;5109321;28;20043;-24
2023/06/22 04:37:55;;;;;;;88.55;52.72;;;13.00;99.90;;;;;;5115728;28;20086;-24
2023/06/22 04:40:26;;;;;;;91.55;55.30;;;13.20;99.90;;;;;;5116584;27;20593;-24
2023/06/22 04:42:57;;;;;;;90.13;55.65;;;13.40;99.90;;;;;;5136180;27;20082;-24
2023/06/22 04:45:23;;;;;;;81.82;53.00;;;13.60;99.90;;;;;;5110600;28;20035;-24
2023/06/22 04:47:52;;;;;;;107.25;62.92;;;13.80;99.90;;;;;;5104376;27;20058;-24
2023/06/22 04:50:20;;;;;;;119.28;64.28;;;14.10;99.90;;;;;;5132753;27;20077;-24
2023/06/22 04:52:46;;;;;;;128.05;66.63;;;14.30;99.90;;;;;;5135216;27;20104;-24
2023/06/22 04:55:13;;;;;;;147.20;74.03;;;14.50;99.90;;;;;;5118142;27;20039;-25
2023/06/22 04:57:44;;;;;;;174.45;86.50;;;14.80;99.90;;;;;;5117223;27;20397;-25
2023/06/22 05:00:16;;;;;;;182.38;90.95;;;15.10;99.90;;;;;;5097954;27;20518;-24
2023/06/22 05:02:44;;;;;;;186.40;89.70;;;15.40;99.90;;;;;;5134766;27;20404;-25
2023/06/22 05:05:13;;;;;;;186.77;92.57;;;15.60;99.90;;;;;;5133100;27;20092;-24
2023/06/22 05:07:52;;;;;;;188.18;90.18;;;15.80;99.90;;;;;;5134878;27;20043;-25
2023/06/22 05:10:26;;;;;;;193.88;94.55;;;16.10;99.90;;;;;;5118238;27;20047;-24
2023/06/22 05:13:01;;;;;;;167.70;90.20;;;16.30;99.90;;;;;;5118283;27;20383;-25
2023/06/22 05:15:36;;;;;;;157.65;81.78;;;16.50;99.90;;;;;;5118293;27;20043;-25
2023/06/22 05:18:05;;;;;;;146.80;82.95;;;16.70;99.90;;;;;;5117886;27;20372;-25
2023/06/22 05:20:30;;;;;;;140.63;76.85;;;16.90;99.90;;;;;;5135499;27;20400;-24
2023/06/22 05:23:02;;;;;;;126.45;74.10;;;17.40;99.90;;;;;;5113529;28;20048;-25
2023/06/22 05:25:35;;;;;;;101.18;64.63;;;17.80;99.90;;;;;;5133645;27;20031;-25
2023/06/22 05:28:10;;;;;;;95.70;63.80;;;18.20;99.90;;;;;;5135105;27;20055;-25
2023/06/22 05:30:39;;;;;;;95.90;62.00;;;18.40;99.90;;;;;;5118945;27;20192;-26
2023/06/22 05:33:05;;;;;;;81.90;59.20;;;18.60;99.90;;;;;;5117014;27;20508;-26
2023/06/22 05:35:31;;;;;;;72.78;53.45;;;19.30;99.90;;;;;;5134753;27;20483;-25
2023/06/22 05:37:57;;;;;;;57.35;48.10;;;20.20;99.90;;;;;;5134306;27;20055;-25
2023/06/22 05:40:27;;;;;;;51.90;42.88;;;20.90;99.90;;;;;;5134996;27;20089;-25
2023/06/22 05:42:53;;;;;;;46.33;40.47;;;21.60;99.90;;;;;;5133119;27;20437;-24
2023/06/22 05:45:18;;;;;;;42.58;37.20;;;21.90;99.90;;;;;;5133694;27;20128;-26
2023/06/22 05:47:47;;;;;;;41.03;36.53;;;;;;;;;;5134544;27;20051;-25
2023/06/22 05:50:18;;;;;;;35.30;31.30;;;22.90;99.90;;;;;;5130949;27;20143;-25
2023/06/22 05:52:46;;;;;;;34.53;30.55;;;23.10;99.90;;;;;;5134766;27;20062;-25
2023/06/22 05:55:11;;;;;;;36.03;32.13;;;23.10;99.90;;;;;;5133882;27;20046;-25
2023/06/22 05:57:37;;;;;;;33.55;28.95;;;22.80;99.90;;;;;;5134733;27;20043;-25
2023/06/22 06:00:06;;;;;;;33.50;29.85;;;22.40;99.90;;;;;;5114539;27;20450;-24
2023/06/22 06:02:43;;;;;;;35.65;30.60;;;22.20;55.90;;;;;;5133863;27;20043;-25
2023/06/22 06:05:13;;;;;;;34.15;30.45;;;21.90;1.00;;;;;;5134703;27;20066;-25
2023/06/22 06:07:42;;;;;;;31.10;27.85;;;21.50;1.00;;;;;;5133596;28;20369;-25
2023/06/22 06:10:08;;;;;;;33.65;30.15;;;21.20;1.00;;;;;;5133832;27;20556;-25
2023/06/22 06:12:34;;;;;;;37.95;31.58;;;21.20;82.80;;;;;;5114267;28;20041;-24
2023/06/22 06:14:59;;;;;;;37.67;30.67;;;21.30;1.00;;;;;;5110472;28;20388;-27
2023/06/22 06:17:30;;;;;;;35.75;31.85;;;21.10;1.00;;;;;;5114979;28;20091;-24
2023/06/22 06:19:56;;;;;;;37.53;31.25;;;21.20;1.00;;;;;;5134558;28;20112;-24
2023/06/22 06:22:24;;;;;;;34.05;30.27;;;21.50;1.00;;;;;;5134550;28;20068;-26
2023/06/22 06:24:50;;;;;;;35.13;29.70;;;21.70;1.00;;;;;;5099349;28;20046;-26
2023/06/22 06:27:18;;;;;;;34.38;30.67;;;21.90;1.00;;;;;;5134436;28;20047;-26
2023/06/22 06:29:48;;;;;;;35.20;31.20;;;22.10;1.00;;;;;;5099778;28;20054;-26
2023/06/22 06:32:19;;;;;;;35.92;31.15;;;22.10;99.90;;;;;;5133815;28;20090;-25
2023/06/22 06:34:47;;;;;;;38.83;34.70;;;22.40;99.90;;;;;;5134705;28;20496;-27
2023/06/22 06:37:16;;;;;;;35.53;31.63;;;22.40;99.90;;;;;;5082527;28;20049;-26
2023/06/22 06:39:49;;;;;;;33.33;28.83;;;22.20;99.90;;;;;;5116311;28;20568;-26
2023/06/22 06:42:19;;;;;;;36.72;31.70;;;22.10;99.90;;;;;;5134757;28;20122;-26
2023/06/22 06:44:45;;;;;;;33.70;30.17;;;22.20;99.90;;;;;;5134204;28;20545;-26
2023/06/22 06:47:11;;;;;;;36.75;31.27;;;22.40;99.90;;;;;;5099293;28;20043;-26
2023/06/22 06:49:41;;;;;;;39.03;31.83;;;22.90;99.90;;;;;;5133997;28;20062;-26
2023/06/22 06:52:12;;;;;;;37.95;31.90;;;23.30;1.00;;;;;;5135076;28;20086;-26
2023/06/22 06:54:37;;;;;;;35.50;30.58;;;23.30;99.90;;;;;;5116523;28;20118;-26
2023/06/22 06:57:03;;;;;;;34.05;30.35;;;23.60;99.90;;;;;;5134237;28;20081;-26
2023/06/22 06:59:30;;;;;;;31.65;28.20;;;23.60;79.10;;;;;;5134165;28;20087;-26
2023/06/22 07:01:56;;;;;;;34.05;28.40;;;23.60;44.20;;;;;;5134237;28;20115;-26
2023/06/22 07:04:26;;;;;;;31.40;26.80;;;23.70;1.00;;;;;;5115981;28;20043;-27
2023/06/22 07:06:54;;;;;;;32.17;25.30;;;23.80;1.00;;;;;;5134456;28;20405;-26
2023/06/22 07:09:24;;;;;;;31.90;27.23;;;23.80;1.00;;;;;;5098784;28;20051;-26
2023/06/22 07:11:50;;;;;;;30.85;27.52;;;23.50;1.00;;;;;;5134229;28;20092;-26
2023/06/22 07:14:20;;;;;;;30.77;23.80;;;23.40;1.00;;;;;;5134081;28;20561;-26
2023/06/22 07:16:46;;;;;;;31.88;26.88;;;23.50;1.00;;;;;;5134143;28;20051;-26
2023/06/22 07:19:15;;;;;;;27.98;24.90;;;23.60;99.90;;;;;;5116025;28;20134;-26
2023/06/22 07:21:40;;;;;;;24.60;21.98;;;23.60;99.90;;;;;;5135714;27;20043;-26
2023/06/22 07:24:07;;;;;;;21.50;19.33;;;23.80;99.90;;;;;;5137630;27;20515;-26
2023/06/22 07:26:33;;;;;;;21.90;19.52;;;23.90;65.90;;;;;;5119763;27;20100;-26
2023/06/22 07:28:59;;;;;;;24.20;21.23;;;24.00;99.90;;;;;;5137908;27;20047;-26
2023/06/22 07:31:25;;;;;;;24.98;21.10;;;24.50;99.90;;;;;;5118854;27;20510;-26
2023/06/22 07:33:51;;;;;;;24.63;21.83;;;24.90;99.90;;;;;;5137515;27;20117;-26
2023/06/22 07:36:18;;;;;;;25.65;20.80;;;25.30;99.90;;;;;;5119158;27;20453;-27
2023/06/22 07:38:43;;;;;;;21.25;18.95;;;25.60;1.00;;;;;;5119080;27;20040;-26
2023/06/22 07:41:13;;;;;;;19.85;17.75;;;26.20;99.90;;;;;;5137338;27;20485;-26
2023/06/22 07:43:39;;;;;;;16.13;14.43;;;26.20;1.00;;;;;;5137863;27;20115;-26
2023/06/22 07:46:05;;;;;;;16.80;15.07;;;26.30;1.00;;;;;;5137215;27;20046;-26
2023/06/22 07:48:31;;;;;;;14.88;13.32;;;26.20;1.00;;;;;;5137526;27;20055;-26
2023/06/22 07:50:57;;;;;;;15.50;13.30;;;26.10;99.90;;;;;;5137120;27;20458;-26
2023/06/22 07:53:23;;;;;;;15.00;12.13;;;26.20;99.90;;;;;;5136786;27;20043;-26
2023/06/22 07:55:52;;;;;;;17.52;12.55;;;26.40;99.90;;;;;;5137626;27;20043;-26
2023/06/22 07:58:18;;;;;;;13.15;10.38;;;26.50;7.40;;;;;;5119660;27;20475;-26
2023/06/22 08:00:49;;;;;;;14.55;11.25;;;26.50;1.00;;;;;;5119680;27;20054;-28
2023/06/22 08:03:15;;;;;;;16.10;12.27;;;26.80;1.00;;;;;;5136656;27;20468;-26
2023/06/22 08:05:41;;;;;;;13.05;11.57;;;27.00;99.90;;;;;;5102329;27;20039;-26
2023/06/22 08:08:06;;;;;;;16.45;12.50;;;27.10;99.90;;;;;;5136434;27;20050;-27
2023/06/22 08:10:32;;;;;;;14.50;12.80;;;26.70;99.90;;;;;;5118640;27;20104;-26
2023/06/22 08:12:58;;;;;;;12.48;11.15;;;26.30;99.90;;;;;;5101684;27;20075;-26
2023/06/22 08:15:26;;;;;;;16.58;11.00;;;26.20;99.90;;;;;;5136666;27;20043;-26
2023/06/22 08:17:52;;;;;;;12.82;10.60;;;26.60;99.90;;;;;;5137270;27;20095;-26
2023/06/22 08:20:20;;;;;;;11.10;9.98;;;26.80;99.90;;;;;;5136587;27;20039;-27
2023/06/22 08:22:46;;;;;;;11.90;9.13;;;27.00;99.90;;;;;;5136571;27;20138;-26
2023/06/22 08:25:12;;;;;;;9.75;7.90;;;27.40;99.90;;;;;;5119083;27;20433;-26
2023/06/22 08:27:38;;;;;;;9.68;7.90;;;27.50;99.90;;;;;;5136357;27;20047;-26
2023/06/22 08:30:07;;;;;;;10.40;7.65;;;27.80;38.00;;;;;;5136428;27;20045;-26
2023/06/22 08:32:33;;;;;;;7.60;6.72;;;28.10;1.00;;;;;;5135700;27;20047;-26
2023/06/22 08:34:58;;;;;;;9.27;6.45;;;28.40;1.00;;;;;;5119045;27;20077;-26
2023/06/22 08:37:30;;;;;;;10.55;7.32;;;28.30;1.00;;;;;;5136670;27;20039;-26
2023/06/22 08:40:01;;;;;;;7.93;6.03;;;28.10;1.00;;;;;;5136877;27;20397;-27
2023/06/22 08:42:27;;;;;;;7.25;5.75;;;28.10;1.00;;;;;;5119163;27;20054;-26
2023/06/22 08:44:53;;;;;;;8.70;6.85;;;28.40;1.00;;;;;;5135982;27;20039;-27
2023/06/22 08:47:21;;;;;;;8.63;6.32;;;28.80;99.90;;;;;;5135677;27;20039;-27
2023/06/22 08:49:49;;;;;;;7.28;5.45;;;29.10;99.90;;;;;;5117088;27;20477;-26
2023/06/22 08:52:15;;;;;;;8.20;5.80;;;29.10;99.90;;;;;;5135951;27;20039;-26
2023/06/22 08:54:41;;;;;;;6.57;5.30;;;28.90;99.90;;;;;;5135522;27;20402;-27
2023/06/22 08:57:09;;;;;;;5.18;4.68;;;29.00;99.90;;;;;;5117474;27;20093;-27
2023/06/22 08:59:37;;;;;;;5.72;5.13;;;29.00;99.90;;;;;;5135810;27;20075;-27
2023/06/22 09:02:03;;;;;;;6.10;5.15;;;29.20;99.90;;;;;;5135758;27;20122;-27
2023/06/22 09:04:29;;;;;;;7.95;5.22;;;29.80;99.90;;;;;;5135637;27;20453;-26
2023/06/22 09:06:54;;;;;;;7.32;6.25;;;29.70;99.90;;;;;;5135656;27;20393;-28
2023/06/22 09:09:24;;;;;;;6.50;4.65;;;29.50;99.90;;;;;;5135642;27;20050;-27
2023/06/22 09:11:49;;;;;;;6.00;4.18;;;30.10;99.90;;;;;;5117510;27;20043;-27
2023/06/22 09:14:15;;;;;;;4.65;3.25;;;30.10;99.90;;;;;;5136062;27;20074;-27
2023/06/22 09:16:43;;;;;;;5.18;3.00;;;30.30;99.90;;;;;;5117207;27;20035;-27
2023/06/22 09:19:08;;;;;;;5.20;3.42;;;30.40;99.90;;;;;;5135418;27;20377;-27
2023/06/22 09:21:34;;;;;;;7.55;3.53;;;30.50;99.90;;;;;;5135352;27;20043;-27
2023/06/22 09:24:00;;;;;;;5.28;3.40;;;30.40;99.90;;;;;;5100257;27;20544;-26
2023/06/22 09:26:26;;;;;;;5.68;3.50;;;30.30;99.90;;;;;;5135154;27;20054;-27
2023/06/22 09:28:52;;;;;;;6.00;3.85;;;30.50;99.90;;;;;;5135334;27;20039;-27
2023/06/22 09:31:20;;;;;;;6.05;4.90;;;31.00;99.90;;;;;;5135517;27;20050;-27
2023/06/22 09:33:47;;;;;;;5.38;4.88;;;31.00;99.90;;;;;;5136024;27;20369;-27
2023/06/22 09:36:12;;;;;;;6.63;4.25;;;30.70;99.90;;;;;;5117426;27;20046;-28
2023/06/22 09:38:41;;;;;;;6.78;5.43;;;30.70;99.90;;;;;;5099904;27;20055;-27
2023/06/22 09:41:07;;;;;;;7.65;4.90;;;30.50;99.90;;;;;;5135075;27;20047;-27
2023/06/22 09:43:35;;;;;;;6.70;5.13;;;30.40;99.90;;;;;;5100197;27;20043;-27
2023/06/22 09:46:02;;;;;;;4.78;4.07;;;30.70;99.90;;;;;;5134025;27;20076;-28
2023/06/22 09:48:29;;;;;;;5.63;4.50;;;30.70;99.90;;;;;;5116835;27;20054;-27
2023/06/22 09:50:55;;;;;;;5.97;4.90;;;30.90;99.90;;;;;;5117038;27;20062;-27
2023/06/22 09:53:20;;;;;;;5.82;4.35;;;31.10;99.90;;;;;;5134890;27;20389;-27
2023/06/22 09:55:47;;;;;;;7.40;5.22;;;31.50;99.90;;;;;;5116480;27;20047;-27
2023/06/22 09:58:12;;;;;;;7.20;6.38;;;31.40;99.90;;;;;;5099820;27;20039;-27
2023/06/22 10:00:40;;;;;;;7.25;5.85;;;31.60;99.90;;;;;;5134480;27;20058;-27
2023/06/22 10:03:06;;;;;;;7.35;5.82;;;31.60;83.60;;;;;;5134779;27;20129;-27
2023/06/22 10:05:32;;;;;;;7.10;6.40;;;30.80;29.50;;;;;;5134719;27;20118;-27
2023/06/22 10:07:57;;;;;;;7.43;6.65;;;30.20;57.30;;;;;;5134803;27;20480;-27
2023/06/22 10:10:23;;;;;;;7.88;5.63;;;29.90;49.30;;;;;;5134945;28;20123;-27
2023/06/22 10:12:56;;;;;;;8.40;6.80;;;29.90;85.80;;;;;;5134638;28;20051;-27
2023/06/22 10:15:22;;;;;;;8.10;6.95;;;30.30;92.00;;;;;;5135532;28;20035;-27
2023/06/22 10:17:50;;;;;;;8.32;5.78;;;30.10;56.60;;;;;;5134620;28;20476;-27
2023/06/22 10:20:18;;;;;;;8.05;6.85;;;29.70;82.20;;;;;;5135136;28;20040;-27
2023/06/22 10:22:44;;;;;;;9.15;7.55;;;29.80;92.50;;;;;;5135129;28;20051;-27
2023/06/22 10:25:15;;;;;;;7.88;7.07;;;30.00;94.00;;;;;;5134449;28;20035;-27
2023/06/22 10:27:41;;;;;;;8.32;7.07;;;30.30;87.90;;;;;;5116017;28;20535;-28
2023/06/22 10:30:12;;;;;;;8.98;7.00;;;30.20;91.30;;;;;;5133610;28;20083;-27
2023/06/22 10:32:39;;;;;;;9.13;7.60;;;30.10;75.80;;;;;;5134167;28;20047;-27
2023/06/22 10:35:05;;;;;;;8.55;6.72;;;29.90;61.80;;;;;;5116422;28;20133;-27
2023/06/22 10:37:31;;;;;;;8.35;6.78;;;29.90;57.90;;;;;;5134247;28;20047;-27
2023/06/22 10:39:57;;;;;;;7.35;6.47;;;30.10;87.60;;;;;;5099982;28;20541;-27
2023/06/22 10:42:23;;;;;;;7.38;6.20;;;30.50;94.90;;;;;;5134331;28;20050;-27
2023/06/22 10:44:49;;;;;;;10.00;6.47;;;30.60;34.60;;;;;;5115956;28;20148;-28
2023/06/22 10:47:14;;;;;;;6.85;6.00;;;30.50;27.10;;;;;;5132679;28;20043;-27
2023/06/22 10:49:41;;;;;;;8.68;7.72;;;30.70;32.50;;;;;;5129991;28;20058;-27
2023/06/22 10:52:08;;;;;;;8.07;7.28;;;30.70;28.20;;;;;;5133388;28;20585;-28
2023/06/22 10:54:37;;;;;;;8.18;5.80;;;30.80;22.80;;;;;;5113404;28;20040;-28
2023/06/22 10:57:03;;;;;;;9.32;6.47;;;31.00;37.00;;;;;;5116159;28;20477;-27
2023/06/22 10:59:29;;;;;;;8.30;6.65;;;31.20;55.00;;;;;;5095434;27;20062;-27
2023/06/22 11:01:58;;;;;;;8.75;7.25;;;31.40;53.50;;;;;;5137485;27;20050;-27
2023/06/22 11:04:24;;;;;;;8.35;6.53;;;31.50;32.20;;;;;;5138021;27;20050;-28
2023/06/22 11:06:50;;;;;;;8.23;6.30;;;31.10;23.30;;;;;;5134213;27;20047;-28
2023/06/22 11:09:20;;;;;;;8.80;6.88;;;30.90;12.10;;;;;;5137997;27;20051;-28
2023/06/22 11:11:50;;;;;;;8.43;5.97;;;30.60;1.00;;;;;;5119543;27;20499;-28
2023/06/22 11:14:16;;;;;;;7.07;5.30;;;30.10;1.00;;;;;;5137855;27;20050;-27
2023/06/22 11:16:42;;;;;;;8.48;6.85;;;30.10;13.80;;;;;;5134662;27;20050;-27
2023/06/22 11:19:10;;;;;;;6.88;5.80;;;30.60;22.70;;;;;;5129774;27;20048;-28
2023/06/22 11:21:36;;;;;;;8.15;6.97;;;30.70;19.60;;;;;;5130883;27;20424;-27
2023/06/22 11:24:02;;;;;;;11.40;6.63;;;30.80;31.00;;;;;;5102585;27;20055;-28
2023/06/22 11:26:27;;;;;;;9.50;6.82;;;30.70;23.00;;;;;;5137523;27;20040;-27
2023/06/22 11:28:53;;;;;;;7.13;5.82;;;30.20;15.40;;;;;;5137622;27;20047;-28
2023/06/22 11:31:19;;;;;;;8.20;6.40;;;29.90;1.00;;;;;;5137225;27;20050;-28
2023/06/22 11:33:48;;;;;;;5.65;5.05;;;29.60;9.30;;;;;;5137471;27;20046;-27
2023/06/22 11:36:15;;;;;;;8.20;6.72;;;29.90;40.00;;;;;;5137451;27;20126;-28
2023/06/22 11:38:42;;;;;;;8.23;6.13;;;30.00;46.50;;;;;;5119358;27;20122;-28
2023/06/22 11:41:08;;;;;;;9.00;6.18;;;29.70;41.30;;;;;;5137380;27;20051;-27
2023/06/22 11:43:34;;;;;;;6.70;5.90;;;29.40;36.30;;;;;;5138171;27;20096;-27
2023/06/22 11:46:02;;;;;;;7.68;5.65;;;29.00;52.40;;;;;;5137247;27;20051;-27
2023/06/22 11:48:28;;;;;;;8.60;6.45;;;28.90;81.50;;;;;;5137355;27;20476;-28
2023/06/22 11:50:54;;;;;;;5.57;4.97;;;29.00;83.20;;;;;;5137143;27;20091;-27
2023/06/22 11:53:21;;;;;;;7.00;5.35;;;29.20;89.60;;;;;;5137101;27;20051;-27
2023/06/22 11:55:48;;;;;;;4.93;4.40;;;29.60;99.90;;;;;;5137171;27;20100;-28
2023/06/22 11:58:14;;;;;;;5.97;4.70;;;29.40;85.80;;;;;;5137135;27;20086;-28
2023/06/22 12:00:41;;;;;;;7.18;4.88;;;29.20;63.20;;;;;;5137018;27;20083;-27
2023/06/22 12:03:07;;;;;;;5.90;4.68;;;28.70;46.00;;;;;;5118816;27;20058;-28
2023/06/22 12:05:33;;;;;;;6.35;4.72;;;28.20;46.20;;;;;;5136849;27;20082;-27
2023/06/22 12:07:59;;;;;;;6.13;4.57;;;28.10;99.90;;;;;;5136326;27;20079;-28
2023/06/22 12:10:28;;;;;;;6.25;4.43;;;27.70;99.90;;;;;;5136853;27;20043;-27
2023/06/22 12:12:54;;;;;;;6.18;4.45;;;27.40;99.90;;;;;;5118664;27;20458;-27
2023/06/22 12:15:20;;;;;;;5.60;4.47;;;27.30;99.90;;;;;;5118046;27;20130;-27
2023/06/22 12:17:48;;;;;;;7.25;5.15;;;27.10;99.90;;;;;;5119076;27;20384;-27
2023/06/22 12:20:13;;;;;;;7.78;4.50;;;27.00;99.90;;;;;;5118310;27;20047;-27
2023/06/22 12:22:40;;;;;;;8.30;4.25;;;27.00;99.90;;;;;;5118448;27;20050;-27
2023/06/22 12:25:09;;;;;;;6.00;4.40;;;27.00;99.90;;;;;;5136449;27;20078;-27
2023/06/22 12:27:36;;;;;;;7.10;3.45;;;26.80;99.90;;;;;;5136421;27;20039;-28
2023/06/22 12:30:03;;;;;;;4.30;3.25;;;26.70;99.90;;;;;;5118344;27;20366;-27
2023/06/22 12:32:29;;;;;;;5.32;3.55;;;26.80;99.90;;;;;;5136301;27;20047;-27
2023/06/22 12:34:55;;;;;;;5.18;4.03;;;26.80;99.90;;;;;;5137112;27;20449;-27
2023/06/22 12:37:20;;;;;;;4.03;3.63;;;26.70;99.90;;;;;;5136829;27;20042;-27
2023/06/22 12:39:46;;;;;;;6.70;4.00;;;26.70;99.90;;;;;;5136217;27;20055;-28
2023/06/22 12:42:12;;;;;;;4.63;3.67;;;26.50;99.90;;;;;;5136198;27;20130;-27
2023/06/22 12:44:39;;;;;;;4.20;3.70;;;26.40;99.90;;;;;;5117838;27;20126;-27